createdAt,value
2018-10-07T00:04:33.629Z,11
2018-10-07T00:09:36.094Z,10
2018-10-07T00:14:38.525Z,8
2018-10-07T00:19:40.940Z,9
2018-10-07T00:24:43.404Z,9
2018-10-07T00:29:45.853Z,9
2018-10-07T00:34:48.275Z,10
2018-10-07T00:39:50.711Z,9
2018-10-07T00:44:53.194Z,9
2018-10-07T00:49:55.605Z,8
2018-10-07T00:54:58.027Z,7
2018-10-07T01:00:00.477Z,9
2018-10-07T01:05:02.924Z,11
2018-10-07T01:10:05.374Z,7
2018-10-07T01:15:07.771Z,8
2018-10-07T01:20:10.219Z,8
2018-10-07T01:25:12.670Z,7
2018-10-07T01:30:15.202Z,9
2018-10-07T01:35:17.552Z,8
2018-10-07T01:40:19.988Z,7
2018-10-07T01:45:22.460Z,8
2018-10-07T01:50:25.081Z,7
2018-10-07T01:55:27.311Z,10
2018-10-07T02:00:29.751Z,7
2018-10-07T02:05:32.212Z,9
2018-10-07T02:10:34.631Z,8
2018-10-07T02:15:37.072Z,8
2018-10-07T02:20:39.510Z,8
2018-10-07T02:25:41.954Z,9
2018-10-07T02:30:44.390Z,8
2018-10-07T02:35:46.823Z,12
2018-10-07T02:40:49.266Z,9
2018-10-07T02:45:51.723Z,8
2018-10-07T02:50:54.153Z,11
2018-10-07T02:55:56.588Z,8
2018-10-07T03:00:59.129Z,8
2018-10-07T03:06:01.496Z,9
2018-10-07T03:11:03.917Z,9
2018-10-07T03:16:06.359Z,9
2018-10-07T03:21:08.791Z,10
2018-10-07T03:26:11.235Z,10
2018-10-07T03:31:13.742Z,9
2018-10-07T03:36:16.132Z,11
2018-10-07T03:41:18.579Z,10
2018-10-07T03:46:21.058Z,10
2018-10-07T03:51:23.456Z,10
2018-10-07T03:56:25.874Z,10
2018-10-07T04:01:28.403Z,10
2018-10-07T04:06:30.776Z,9
2018-10-07T04:11:33.256Z,11
2018-10-07T04:16:35.753Z,11
2018-10-07T04:21:38.177Z,9
2018-10-07T04:26:40.547Z,12
2018-10-07T04:36:45.453Z,10
2018-10-07T04:41:47.844Z,9
2018-10-07T04:46:50.314Z,10
2018-10-07T04:51:52.725Z,10
2018-10-07T04:56:55.149Z,11
2018-10-07T05:01:57.586Z,11
2018-10-07T05:07:00.074Z,12
2018-10-07T05:12:02.633Z,8
2018-10-07T05:17:04.908Z,11
2018-10-07T05:22:07.383Z,10
2018-10-07T05:27:09.795Z,11
2018-10-07T05:32:12.246Z,11
2018-10-07T05:37:14.719Z,10
2018-10-07T05:42:17.135Z,9
2018-10-07T05:47:19.563Z,11
2018-10-07T05:52:21.989Z,11
2018-10-07T05:57:24.458Z,14
2018-10-07T06:02:26.904Z,16
2018-10-07T06:07:29.334Z,16
2018-10-07T06:12:31.769Z,13
2018-10-07T06:17:34.300Z,12
2018-10-07T06:22:36.648Z,13
2018-10-07T06:27:39.100Z,14
2018-10-07T06:32:41.566Z,13
2018-10-07T06:37:43.953Z,11
2018-10-07T06:42:46.414Z,10
2018-10-07T06:47:48.843Z,11
2018-10-07T06:52:51.295Z,19
2018-10-07T06:57:53.785Z,13
2018-10-07T07:02:56.170Z,11
2018-10-07T07:07:58.618Z,13
2018-10-07T07:13:01.119Z,11
2018-10-07T07:18:03.555Z,13
2018-10-07T07:23:05.940Z,12
2018-10-07T07:28:08.365Z,13
2018-10-07T07:33:10.836Z,14
2018-10-07T07:38:13.236Z,15
2018-10-07T07:43:15.679Z,13
2018-10-07T07:48:18.137Z,15
2018-10-07T07:53:20.576Z,13
2018-10-07T07:58:23.015Z,17
2018-10-07T08:03:25.478Z,14
2018-10-07T08:08:27.893Z,17
2018-10-07T08:13:30.338Z,18
2018-10-07T08:18:32.821Z,19
2018-10-07T08:23:35.302Z,20
2018-10-07T08:28:37.671Z,20
2018-10-07T08:33:40.084Z,20
2018-10-07T08:38:42.544Z,22
2018-10-07T08:43:44.969Z,22
2018-10-07T08:48:47.415Z,22
2018-10-07T08:53:49.858Z,25
2018-10-07T08:58:52.286Z,27
2018-10-07T09:03:54.752Z,27
2018-10-07T09:08:57.288Z,30
2018-10-07T09:13:59.611Z,32
2018-10-07T09:19:02.039Z,36
2018-10-07T09:24:04.491Z,42
2018-10-07T09:29:06.926Z,41
2018-10-07T09:34:09.400Z,40
2018-10-07T09:39:11.877Z,44
2018-10-07T09:44:14.257Z,47
2018-10-07T09:49:16.702Z,48
2018-10-07T09:54:19.132Z,50
2018-10-07T09:59:21.575Z,51
2018-10-07T10:04:24.253Z,47
2018-10-07T10:09:26.445Z,50
2018-10-07T10:14:28.890Z,56
2018-10-07T10:19:31.378Z,59
2018-10-07T10:24:33.778Z,54
2018-10-07T10:29:36.226Z,56
2018-10-07T10:34:38.666Z,60
2018-10-07T10:39:41.186Z,65
2018-10-07T10:44:43.538Z,68
2018-10-07T10:49:45.972Z,67
2018-10-07T10:54:48.412Z,64
2018-10-07T10:59:50.861Z,62
2018-10-07T11:04:53.842Z,59
2018-10-07T11:09:55.789Z,62
2018-10-07T11:14:58.178Z,68
2018-10-07T11:20:00.613Z,83
2018-10-07T11:25:03.068Z,71
2018-10-07T11:30:05.569Z,76
2018-10-07T11:35:07.955Z,84
2018-10-07T11:40:10.438Z,75
2018-10-07T11:45:12.815Z,71
2018-10-07T11:50:15.285Z,65
2018-10-07T11:55:17.695Z,66
2018-10-07T12:00:20.143Z,74
2018-10-07T12:05:22.590Z,66
2018-10-07T12:10:25.022Z,64
2018-10-07T12:15:27.468Z,65
2018-10-07T12:20:29.900Z,66
2018-10-07T12:25:32.348Z,69
2018-10-07T12:30:34.790Z,67
2018-10-07T12:35:37.369Z,74
2018-10-07T12:40:39.673Z,68
2018-10-07T12:45:42.094Z,64
2018-10-07T12:55:46.987Z,66
2018-10-07T13:00:49.424Z,63
2018-10-07T13:05:51.869Z,69
2018-10-07T13:10:54.307Z,69
2018-10-07T13:15:56.904Z,73
2018-10-07T13:20:59.188Z,71
2018-10-07T13:26:01.698Z,72
2018-10-07T13:31:04.074Z,62
2018-10-07T13:36:06.515Z,60
2018-10-07T13:41:08.948Z,53
2018-10-07T13:46:11.401Z,53
2018-10-07T13:51:13.826Z,50
2018-10-07T13:56:16.281Z,49
2018-10-07T14:01:18.707Z,49
2018-10-07T14:06:21.715Z,41
2018-10-07T14:11:23.583Z,45
2018-10-07T14:16:26.031Z,46
2018-10-07T14:21:28.475Z,39
2018-10-07T14:26:30.912Z,43
2018-10-07T14:31:33.352Z,39
2018-10-07T14:36:35.806Z,35
2018-10-07T14:41:38.275Z,37
2018-10-07T14:46:40.677Z,33
2018-10-07T14:51:43.120Z,27
2018-10-07T14:56:45.545Z,29
2018-10-07T15:01:47.989Z,23
2018-10-07T15:06:50.454Z,21
2018-10-07T15:11:52.871Z,22
2018-10-07T15:16:55.321Z,21
2018-10-07T15:21:57.764Z,19
2018-10-07T15:27:00.206Z,23
2018-10-07T15:32:02.641Z,19
2018-10-07T15:37:05.082Z,18
2018-10-07T15:47:09.952Z,13
2018-10-07T15:52:12.396Z,15
2018-10-07T15:57:14.828Z,13
2018-10-07T16:02:17.273Z,13
2018-10-07T16:07:19.749Z,11
2018-10-07T16:12:22.244Z,9
2018-10-07T16:17:24.705Z,8
2018-10-07T16:22:27.039Z,8
2018-10-07T16:27:29.470Z,8
2018-10-07T16:32:31.919Z,8
2018-10-07T16:37:34.374Z,7
2018-10-07T16:42:36.821Z,6
2018-10-07T16:47:39.280Z,7
2018-10-07T16:52:41.702Z,6
2018-10-07T16:57:44.112Z,6
2018-10-07T17:02:46.561Z,9
2018-10-07T17:07:49.020Z,5
2018-10-07T17:12:51.520Z,10
2018-10-07T17:17:53.906Z,5
2018-10-07T17:22:56.327Z,5
2018-10-07T17:27:58.779Z,5
2018-10-07T17:33:01.247Z,5
2018-10-07T17:38:03.642Z,5
2018-10-07T17:43:06.070Z,5
2018-10-07T17:48:08.576Z,4
2018-10-07T17:53:10.952Z,5
2018-10-07T17:58:13.397Z,4
2018-10-07T18:03:15.904Z,2
2018-10-07T18:08:18.276Z,5
2018-10-07T18:13:20.740Z,4
2018-10-07T18:18:23.284Z,5
2018-10-07T18:23:25.670Z,2
2018-10-07T18:28:28.033Z,2
2018-10-07T18:33:30.486Z,3
2018-10-07T18:38:32.913Z,3
2018-10-07T18:43:35.369Z,4
2018-10-07T18:48:37.836Z,3
2018-10-07T18:53:40.246Z,3
2018-10-07T18:58:42.682Z,4
2018-10-07T19:03:45.123Z,3
2018-10-07T19:08:47.567Z,3
2018-10-07T19:13:50.001Z,2
2018-10-07T19:18:52.450Z,2
2018-10-07T19:23:54.927Z,4
2018-10-07T19:28:57.324Z,3
2018-10-07T19:33:59.787Z,3
2018-10-07T19:39:02.207Z,3
2018-10-07T19:44:04.642Z,3
2018-10-07T19:49:07.078Z,3
2018-10-07T19:54:09.565Z,2
2018-10-07T19:59:11.968Z,3
2018-10-07T20:04:14.408Z,3
2018-10-07T20:09:16.855Z,3
2018-10-07T20:14:19.307Z,3
2018-10-07T20:19:21.848Z,2
2018-10-07T20:24:24.164Z,2
2018-10-07T20:29:26.594Z,2
2018-10-07T20:34:29.046Z,2
2018-10-07T20:39:31.476Z,3
2018-10-07T20:44:33.917Z,5
2018-10-07T20:49:36.363Z,4
2018-10-07T20:54:38.818Z,5
2018-10-07T20:59:41.242Z,5
2018-10-07T21:04:43.676Z,2
2018-10-07T21:09:46.125Z,3
2018-10-07T21:14:48.554Z,1
2018-10-07T21:19:50.996Z,3
2018-10-07T21:24:53.449Z,3
2018-10-07T21:29:55.900Z,3
2018-10-07T21:34:58.392Z,3
2018-10-07T21:40:00.772Z,3
2018-10-07T21:45:03.203Z,1
2018-10-07T21:50:05.647Z,2
2018-10-07T21:55:08.155Z,2
2018-10-07T22:00:10.547Z,3
2018-10-07T22:05:12.973Z,1
2018-10-07T22:10:15.440Z,2
2018-10-07T22:15:17.850Z,2
2018-10-07T22:20:20.300Z,2
2018-10-07T22:25:22.733Z,4
2018-10-07T22:30:25.183Z,3
2018-10-07T22:35:27.609Z,2
2018-10-07T22:40:30.074Z,5
2018-10-07T22:45:32.491Z,3
2018-10-07T22:50:34.920Z,4
2018-10-07T22:55:37.367Z,3
2018-10-07T23:00:39.820Z,4
2018-10-07T23:05:42.253Z,4
2018-10-07T23:10:44.700Z,3
2018-10-07T23:15:47.271Z,4
2018-10-07T23:20:49.563Z,3
2018-10-07T23:25:52.034Z,2
2018-10-07T23:30:54.450Z,2
2018-10-07T23:35:56.897Z,3
2018-10-07T23:40:59.414Z,3
2018-10-07T23:46:01.805Z,4
2018-10-07T23:51:04.216Z,3
2018-10-07T23:56:06.662Z,3
